Flight Track Log - Related Links

Times and Time Zones

All times are in EDT time to prevent confusion due to time zone crossing. See the LOF3416 flight status page for this flight to view local times or setup timezone preferences in your user account.

Time Position Orientation Groundspeed Altitude Reporting Facility
EDT Latitude Longitude Course Direction KTS MPH feet Rate Location/Type
Tue 10:27:09 PM 38.9333 -77.5500 270° West 203 234 2,500  Level Potomac TRACON
Tue 10:28:09 PM 38.9333 -77.6333 270° West 247 284 4,900 1,563 Climbing Potomac TRACON
Tue 10:28:45 PM 38.9078 -77.6831 237° Southwest 250 288 5,000 1,500 Climbing Washington Center
Tue 10:29:45 PM 38.8894 -77.7733 255° West 250 288 7,300 2,450 Climbing Washington Center
Tue 10:30:45 PM 38.8983 -77.8589 278° West 257 296 9,900 2,100 Climbing Washington Center
Tue 10:31:00 PM 38.9283 -78.1466 288° West  Level FlightAware Approximate
Tue 10:31:45 PM 38.9111 -77.9472 281° West 264 304 11,500  Level Washington Center
Tue 10:32:00 PM 38.9500 -78.2612 270° West  Level FlightAware Approximate
Tue 10:32:45 PM 38.9303 -78.0386 285° West 270 311 13,100  Level Washington Center
Tue 10:33:45 PM 38.9489 -78.1461 283° West 291 335 15,100 1,700 Climbing Washington Center
Tue 10:34:45 PM 38.9631 -78.2558 279° West 303 349 16,500 950 Climbing Washington Center
Tue 10:35:45 PM 38.9667 -78.3736 272° West 318 366 17,000 400 Climbing Washington Center
Tue 10:36:45 PM 38.9700 -78.5044 272° West 348 400 17,300 550 Climbing Washington Center
Tue 10:37:45 PM 38.9750 -78.6356 273° West 366 421 18,100 900 Climbing Washington Center
Tue 10:38:45 PM 38.9778 -78.7692 272° West 373 429 19,100 1,000 Climbing Washington Center
Tue 10:39:45 PM 38.9825 -78.9056 273° West 378 435 20,100 1,000 Climbing Washington Center
Tue 10:40:45 PM 38.9847 -79.0444 271° West 388 447 21,100 1,300 Climbing Washington Center
Tue 10:41:45 PM 38.9892 -79.1836 272° West 388 447 22,700 1,450 Climbing Washington Center
Tue 10:42:45 PM 38.9933 -79.3175 272° West 383 441 24,000 1,100 Climbing Washington Center
Tue 10:43:45 PM 38.9953 -79.4536 271° West 383 441 24,900 1,500 Climbing Washington Center
Tue 10:44:45 PM 38.9967 -79.6033 271° West 388 447 27,000 1,550 Climbing Washington Center
Tue 10:45:45 PM 39.0011 -79.7158 273° West 375 432 28,000 500 Climbing Washington Center
Tue 10:46:45 PM 39.0028 -79.8442 271° West 370 426 28,000  Level Washington Center
Tue 10:47:45 PM 39.0042 -79.9833 271° West 370 426 28,000  Level Washington Center
Tue 10:48:45 PM 39.0053 -80.1247 271° West 389 448 28,000  Level Washington Center
Tue 10:49:17 PM 39.0053 -80.2064 270° West 402 463 28,000  Level Indianapolis Center
Tue 10:50:18 PM 39.0089 -80.3522 272° West 409 471 28,000  Level Indianapolis Center
Tue 10:51:19 PM 39.0253 -80.4961 278° West 410 472 28,000  Level Indianapolis Center
Tue 10:52:20 PM 39.0450 -80.6386 280° West 407 468 28,000  Level Indianapolis Center
Tue 10:53:22 PM 39.0642 -80.7756 280° West 395 455 28,000  Level Indianapolis Center
Tue 10:54:23 PM 39.0836 -80.9167 280° West 401 461 28,000 -443 Level Indianapolis Center
Tue 10:55:24 PM 39.1008 -81.0564 279° West 399 459 27,100 -1,328 Descending Indianapolis Center
Tue 10:56:25 PM 39.1217 -81.1992 281° West 407 468 25,300 -1,512 Descending Indianapolis Center
Tue 10:57:27 PM 39.1433 -81.3689 279° West 405 466 24,000 -634 Descending Indianapolis Center
Tue 10:58:28 PM 39.1614 -81.5081 280° West 398 458 24,000 -148 Level Indianapolis Center
Tue 10:59:29 PM 39.1800 -81.6483 280° West 400 460 23,700 -885 Descending Indianapolis Center
Tue 11:00:30 PM 39.1975 -81.7903 279° West 403 464 22,200 -829 Descending Indianapolis Center
Tue 11:01:32 PM 39.2147 -81.9283 279° West 394 453 22,000 -98 Descending Indianapolis Center
Tue 11:02:33 PM 39.2308 -82.0647 279° West 387 445 22,000  Level Indianapolis Center
Tue 11:03:34 PM 39.2492 -82.2014 280° West 389 448 22,000  Level Indianapolis Center
Tue 11:04:36 PM 39.2656 -82.3381 279° West 387 445 22,000  Level Indianapolis Center
Tue 11:05:37 PM 39.2828 -82.4800 279° West 383 441 22,000  Level Indianapolis Center
Tue 11:06:38 PM 39.2989 -82.6203 278° West 390 449 22,000  Level Indianapolis Center
Tue 11:07:40 PM 39.3161 -82.7586 279° West 387 445 22,000  Level Indianapolis Center
Tue 11:08:41 PM 39.3350 -82.9219 279° West 390 449 22,000 -1,033 Level Indianapolis Center
Tue 11:09:42 PM 39.3511 -83.0583 279° West 382 440 19,900 -2,311 Descending Indianapolis Center
Tue 11:10:43 PM 39.3661 -83.1864 279° West 360 414 17,300 -2,341 Descending Indianapolis Center
Tue 11:11:45 PM 39.3794 -83.3053 278° West 334 384 15,100 -2,121 Descending Indianapolis Center
Tue 11:12:22 PM 39.3881 -83.3775 279° West 333 383 13,800 -2,164 Descending Indianapolis Center
Tue 11:12:46 PM 39.3928 -83.4258 277° West 334 384 12,900 -1,906 Descending Indianapolis Center
Tue 11:13:47 PM 39.4058 -83.5444 278° West 330 380 11,100 -1,415 Descending Indianapolis Center
Tue 11:14:49 PM 39.4603 -83.6353 308° West 339 390 10,000 -537 Descending Indianapolis Center
Tue 11:15:50 PM 39.5394 -83.7083 325° Northwest 344 396 10,000  Level Indianapolis Center
Tue 11:16:51 PM 39.6158 -83.7878 321° Northwest 346 398 10,000 -49 Level Indianapolis Center
Tue 11:17:52 PM 39.6889 -83.8606 323° Northwest 324 373 9,900 -468 Descending Indianapolis Center
Tue 11:18:08 PM 39.7050 -83.8767 322° Northwest 283 326 9,400 -1,935 Descending Indianapolis Center
Tue 11:18:54 PM 39.7503 -83.9217 323° Northwest 278 320 7,900 -1,967 Descending Indianapolis Center
Tue 11:19:09 PM 39.7653 -83.9386 319° Northwest 263 303 7,400 -1,967 Descending Indianapolis Center
Tue 11:19:55 PM 39.8111 -83.9822 324° Northwest 274 315 5,900 -1,850 Descending Indianapolis Center
Tue 11:20:56 PM 39.8711 -84.0425 322° Northwest 271 312 4,100 -1,512 Descending Indianapolis Center
Tue 11:21:58 PM 39.9261 -84.1033 320° Northwest 262 302 2,800 -1,258 Descending Indianapolis Center

Login

Don't have an account? Register now (free) for customized features, flight alerts, and more!